Time;durP1;ratioP1;P1;durP2;ratioP2;P2;SDS_P1;SDS_P2;PMS_P1;PMS_P2;Temp;Humidity;BMP_temperature;BMP_pressure;BME280_temperature;BME280_humidity;BME280_pressure;Samples;Min_cycle;Max_cycle;Signal;HPM_P1;HPM_P2
2023/10/21 00:00:31;;;;;;;38.20;17.83;;;;;;;8.67;100.00;98642.47;4996332;28;20207;-71
2023/10/21 00:02:58;;;;;;;35.50;16.70;;;;;;;8.67;100.00;98652.22;4999249;28;20222;-71
2023/10/21 00:05:25;;;;;;;32.27;17.50;;;;;;;8.68;100.00;98651.09;4999223;28;20207;-71
2023/10/21 00:07:51;;;;;;;35.60;19.10;;;;;;;8.69;100.00;98668.44;4999450;28;20226;-71
2023/10/21 00:10:18;;;;;;;34.10;16.80;;;;;;;8.70;100.00;98656.78;4998468;28;20653;-72
2023/10/21 00:12:46;;;;;;;36.33;18.27;;;;;;;8.71;100.00;98655.66;4995551;28;20222;-71
2023/10/21 00:15:12;;;;;;;34.13;17.33;;;;;;;8.72;100.00;98649.28;4997568;28;21359;-71
2023/10/21 00:17:39;;;;;;;33.37;18.07;;;;;;;8.73;100.00;98635.00;4994763;28;20606;-70
2023/10/21 00:20:07;;;;;;;35.77;17.60;;;;;;;8.73;100.00;98648.16;4996461;28;20211;-72
2023/10/21 00:22:35;;;;;;;36.43;18.63;;;;;;;8.73;100.00;98654.19;4996072;28;20969;-72
2023/10/21 00:25:02;;;;;;;35.10;17.20;;;;;;;8.74;100.00;98660.97;4997663;28;20223;-70
2023/10/21 00:27:28;;;;;;;32.57;16.90;;;;;;;8.76;100.00;98671.13;4997867;28;20230;-71
2023/10/21 00:29:56;;;;;;;39.83;17.50;;;;;;;8.75;100.00;98665.09;4998064;28;20688;-72
2023/10/21 00:32:22;;;;;;;35.70;16.87;;;;;;;8.76;100.00;98676.41;4983355;28;20204;-72
2023/10/21 00:34:49;;;;;;;39.57;17.13;;;;;;;8.77;100.00;98701.59;4995011;28;20694;-72
2023/10/21 00:37:16;;;;;;;32.73;17.00;;;;;;;8.78;100.00;98701.22;4983272;28;20330;-72
2023/10/21 00:39:43;;;;;;;35.53;18.40;;;;;;;8.78;100.00;98698.59;5000064;28;20270;-71
2023/10/21 00:42:09;;;;;;;36.80;18.80;;;;;;;8.78;100.00;98685.44;4999689;28;20230;-72
2023/10/21 00:44:36;;;;;;;40.03;19.47;;;;;;;8.80;100.00;98691.09;4986608;28;20712;-71
2023/10/21 00:47:04;;;;;;;37.67;17.40;;;;;;;8.82;100.00;98693.38;5009567;28;20220;-71
2023/10/21 00:49:31;;;;;;;34.13;17.97;;;;;;;8.81;100.00;98676.81;5010355;28;20236;-71
2023/10/21 00:51:58;;;;;;;35.20;17.87;;;;;;;8.82;100.00;98694.16;5003800;28;20204;-71
2023/10/21 00:54:27;;;;;;;32.33;17.50;;;;;;;8.82;100.00;98688.88;5002841;28;21009;-71
2023/10/21 00:56:54;;;;;;;35.33;17.27;;;;;;;8.83;100.00;98677.22;4989085;28;23249;-71
2023/10/21 00:59:21;;;;;;;40.57;17.17;;;;;;;8.84;100.00;98680.59;5006021;28;20199;-71
2023/10/21 01:01:48;;;;;;;35.43;17.03;;;;;;;8.83;100.00;98671.97;5007653;28;20239;-71
2023/10/21 01:04:16;;;;;;;39.80;18.00;;;;;;;8.84;100.00;98673.47;4991767;28;20855;-71
2023/10/21 01:06:43;;;;;;;41.20;18.00;;;;;;;8.85;100.00;98669.00;5001612;28;20203;-71
2023/10/21 01:09:10;;;;;;;36.70;17.60;;;;;;;8.84;100.00;98670.84;5004064;28;20668;-71
2023/10/21 01:11:36;;;;;;;38.27;17.73;;;;;;;8.85;100.00;98693.41;5001346;28;20253;-71
2023/10/21 01:14:03;;;;;;;42.23;19.33;;;;;;;8.85;100.00;98696.03;5007526;28;20213;-71
2023/10/21 01:16:29;;;;;;;35.70;17.70;;;;;;;8.86;100.00;98704.72;5004140;28;20207;-71
2023/10/21 01:18:56;;;;;;;34.93;17.30;;;;;;;8.86;100.00;98712.59;5003818;28;20210;-72
2023/10/21 01:21:23;;;;;;;35.40;18.00;;;;;;;8.86;100.00;98715.97;5001171;28;20508;-71
2023/10/21 01:23:52;;;;;;;36.67;18.80;;;;;;;8.87;100.00;98711.47;5010414;28;20675;-72
2023/10/21 01:26:18;;;;;;;35.07;17.73;;;;;;;8.87;100.00;98700.94;5002893;28;20203;-71
2023/10/21 01:28:45;;;;;;;29.70;16.37;;;;;;;8.86;100.00;98697.56;4986704;28;20222;-71
2023/10/21 01:31:12;;;;;;;31.77;17.43;;;;;;;8.86;100.00;98694.91;4998497;28;20212;-71
2023/10/21 01:33:38;;;;;;;34.87;16.77;;;;;;;8.87;100.00;98708.84;5006981;28;20546;-72
2023/10/21 01:36:05;;;;;;;32.87;17.80;;;;;;;8.87;100.00;98722.00;5008233;28;20576;-71
2023/10/21 01:38:31;;;;;;;33.20;17.60;;;;;;;8.86;100.00;98713.34;4983375;28;20250;-71
2023/10/21 01:40:58;;;;;;;28.40;16.17;;;;;;;8.87;100.00;98711.47;5004005;28;20245;-72
2023/10/21 01:43:27;;;;;;;32.90;16.40;;;;;;;8.88;100.00;98707.72;4983338;28;20218;-71
2023/10/21 01:45:54;;;;;;;37.87;17.60;;;;;;;8.87;100.00;98709.63;4997232;28;20221;-70
2023/10/21 01:48:20;;;;;;;35.63;17.03;;;;;;;8.87;100.00;98712.25;5003013;28;20231;-72
2023/10/21 01:50:47;;;;;;;32.90;17.27;;;;;;;8.87;100.00;98711.47;4987559;28;20227;-71
2023/10/21 01:53:13;;;;;;;29.90;15.83;;;;;;;8.87;100.00;98729.91;4992624;28;20226;-71
2023/10/21 01:55:40;;;;;;;33.17;17.23;;;;;;;8.85;100.00;98719.00;5007156;28;20214;-71
2023/10/21 01:58:08;;;;;;;32.30;16.30;;;;;;;8.86;100.00;98720.50;4988626;28;20232;-71
2023/10/21 02:00:34;;;;;;;31.00;17.70;;;;;;;8.86;100.00;98728.41;5007923;28;20211;-71
2023/10/21 02:03:00;;;;;;;29.80;16.90;;;;;;;8.85;100.00;98717.09;4992215;28;20219;-72
2023/10/21 02:05:27;;;;;;;29.03;16.70;;;;;;;8.86;100.00;98717.88;4983112;28;20203;-71
2023/10/21 02:07:53;;;;;;;31.37;15.53;;;;;;;8.85;100.00;98726.88;4989065;28;20250;-70
2023/10/21 02:10:20;;;;;;;29.00;15.93;;;;;;;8.83;100.00;98724.59;4984350;28;20833;-72
2023/10/21 02:12:47;;;;;;;31.70;16.70;;;;;;;8.82;100.00;98731.00;4990398;28;20222;-72
2023/10/21 02:15:15;;;;;;;32.37;16.57;;;;;;;8.83;100.00;98740.41;4995821;28;20211;-72
2023/10/21 02:17:42;;;;;;;33.03;16.03;;;;;;;8.84;100.00;98747.16;5002126;28;20503;-72
2023/10/21 02:20:12;;;;;;;30.90;15.27;;;;;;;8.83;100.00;98748.28;5005415;28;20566;-72
2023/10/21 02:22:38;;;;;;;36.33;16.50;;;;;;;8.83;100.00;98756.19;4994418;28;20214;-71
2023/10/21 02:25:05;;;;;;;34.30;16.93;;;;;;;8.84;100.00;98762.19;4985193;28;20214;-71
2023/10/21 02:27:31;;;;;;;33.80;16.00;;;;;;;8.82;100.00;98759.94;5002776;28;20234;-71
2023/10/21 02:29:58;;;;;;;33.30;17.60;;;;;;;8.83;100.00;98761.44;5007660;28;20238;-70
2023/10/21 02:32:26;;;;;;;33.80;16.00;;;;;;;8.83;100.00;98761.44;4984671;28;20321;-71
2023/10/21 02:34:55;;;;;;;46.80;16.50;;;;;;;8.84;100.00;98767.44;4989886;28;20223;-71
2023/10/21 02:37:22;;;;;;;30.87;14.97;;;;;;;8.83;100.00;98779.09;4981621;28;20451;-72
2023/10/21 02:39:48;;;;;;;33.57;16.37;;;;;;;8.83;100.00;98781.72;5000056;28;20212;-72
2023/10/21 02:42:15;;;;;;;41.63;16.93;;;;;;;8.83;100.00;98792.25;5003949;28;20222;-70
2023/10/21 02:44:41;;;;;;;29.80;14.80;;;;;;;8.84;100.00;98793.78;4983893;28;20201;-72
2023/10/21 02:47:08;;;;;;;31.60;15.70;;;;;;;8.84;100.00;98791.13;5004116;28;20792;-72
2023/10/21 02:49:35;;;;;;;36.30;15.73;;;;;;;8.83;100.00;98793.03;4999729;28;20215;-71
2023/10/21 02:52:02;;;;;;;35.30;15.20;;;;;;;8.84;100.00;98791.91;4999580;28;20531;-71
2023/10/21 02:54:28;;;;;;;32.23;15.27;;;;;;;8.85;100.00;98796.06;4996809;28;20418;-72
2023/10/21 02:56:55;;;;;;;41.30;16.37;;;;;;;8.85;100.00;98793.41;4985894;28;20226;-72
2023/10/21 02:59:21;;;;;;;41.23;15.40;;;;;;;8.86;100.00;98796.81;4989721;28;20203;-72
2023/10/21 03:01:48;;;;;;;44.90;16.00;;;;;;;8.85;100.00;98808.47;4989782;28;20219;-71
2023/10/21 03:04:15;;;;;;;38.67;15.80;;;;;;;8.85;100.00;98801.31;4999255;28;20223;-71
2023/10/21 03:06:42;;;;;;;40.73;15.77;;;;;;;8.86;100.00;98797.56;4997627;28;20216;-71
2023/10/21 03:09:09;;;;;;;39.27;14.80;;;;;;;8.86;100.00;98804.72;4986457;28;20907;-72
2023/10/21 03:11:35;;;;;;;45.60;14.93;;;;;;;8.86;100.00;98802.81;4980846;28;20620;-72
2023/10/21 03:14:02;;;;;;;46.37;16.30;;;;;;;8.86;100.00;98817.88;4988723;28;20209;-71
2023/10/21 03:16:28;;;;;;;36.20;15.80;;;;;;;8.86;100.00;98823.16;4997067;28;20218;-72
2023/10/21 03:18:54;;;;;;;37.37;15.27;;;;;;;8.86;100.00;98826.53;4985941;28;20235;-72
2023/10/21 03:21:21;;;;;;;37.47;15.47;;;;;;;8.86;100.00;98829.16;5004434;28;20206;-72
2023/10/21 03:23:48;;;;;;;32.80;14.43;;;;;;;8.86;100.00;98841.56;5001662;28;20212;-72
2023/10/21 03:26:15;;;;;;;46.53;14.50;;;;;;;8.86;100.00;98839.69;5007998;28;20210;-72
2023/10/21 03:28:43;;;;;;;43.67;14.57;;;;;;;8.86;100.00;98839.69;5005775;28;20232;-71
2023/10/21 03:31:10;;;;;;;37.73;14.77;;;;;;;8.88;100.00;98831.44;4984178;28;20255;-72
2023/10/21 03:33:36;;;;;;;41.93;14.40;;;;;;;8.87;100.00;98825.44;5004083;28;20604;-72
2023/10/21 03:36:04;;;;;;;29.97;13.67;;;;;;;8.87;100.00;98829.91;5007866;28;20211;-71
2023/10/21 03:38:31;;;;;;;31.77;14.67;;;;;;;8.87;100.00;98841.22;5004772;28;20753;-71
2023/10/21 03:41:00;;;;;;;37.23;13.17;;;;;;;8.88;100.00;98840.09;5002460;28;20202;-72
2023/10/21 03:43:27;;;;;;;63.07;14.43;;;;;;;8.87;100.00;98838.59;5005252;28;20208;-71
2023/10/21 03:45:54;;;;;;;30.20;13.17;;;;;;;8.87;100.00;98840.44;4989168;28;20208;-70
2023/10/21 03:48:21;;;;;;;59.27;14.97;;;;;;;8.87;100.00;98848.34;4999092;28;20230;-72
2023/10/21 03:50:48;;;;;;;35.13;14.00;;;;;;;8.87;100.00;98845.72;4986513;28;20391;-70
2023/10/21 03:53:14;;;;;;;53.27;13.40;;;;;;;8.88;100.00;98832.19;5008699;28;20199;-71
2023/10/21 03:55:41;;;;;;;33.03;12.47;;;;;;;8.88;100.00;98826.16;5005988;28;20204;-71
2023/10/21 03:58:10;;;;;;;58.83;14.20;;;;;;;8.87;100.00;98830.69;5002260;28;20234;-72
2023/10/21 04:00:36;;;;;;;39.27;13.03;;;;;;;8.86;100.00;98829.16;5005219;28;20214;-72
2023/10/21 04:03:03;;;;;;;35.90;14.10;;;;;;;8.86;100.00;98833.66;5005435;28;20698;-72
2023/10/21 04:05:29;;;;;;;47.53;14.23;;;;;;;8.85;100.00;98851.31;5003860;28;20211;-71
2023/10/21 04:07:56;;;;;;;35.63;13.83;;;;;;;8.86;100.00;98850.19;4995908;28;20239;-71
2023/10/21 04:10:23;;;;;;;28.80;13.70;;;;;;;8.86;100.00;98849.47;4994210;28;20303;-72
2023/10/21 04:12:49;;;;;;;33.67;13.70;;;;;;;8.87;100.00;98850.97;5008840;28;20210;-71
2023/10/21 04:15:17;;;;;;;37.37;13.80;;;;;;;8.87;100.00;98845.72;5005919;28;20568;-72
2023/10/21 04:17:45;;;;;;;35.73;13.50;;;;;;;8.87;100.00;98840.44;5000538;28;20220;-71
2023/10/21 04:20:16;;;;;;;36.60;13.93;;;;;;;8.87;100.00;98840.44;4995354;28;20702;-71
2023/10/21 04:22:42;;;;;;;38.17;13.60;;;;;;;8.87;100.00;98840.44;5002779;28;21028;-71
2023/10/21 04:25:09;;;;;;;38.20;15.67;;;;;;;8.85;100.00;98851.31;5000873;28;20853;-72
2023/10/21 04:27:35;;;;;;;28.70;13.17;;;;;;;8.86;100.00;98850.19;5003664;28;20263;-71
2023/10/21 04:30:01;;;;;;;44.83;13.30;;;;;;;8.85;100.00;98853.97;5003767;28;20614;-72
2023/10/21 04:32:29;;;;;;;24.57;14.00;;;;;;;8.86;100.00;98850.19;5001670;28;20215;-72
2023/10/21 04:34:56;;;;;;;37.27;13.73;;;;;;;8.87;100.00;98856.25;5000558;28;20290;-71
2023/10/21 04:37:22;;;;;;;36.67;12.67;;;;;;;8.85;100.00;98864.47;5001832;28;20259;-72
2023/10/21 04:39:48;;;;;;;42.83;13.00;;;;;;;8.84;100.00;98865.59;5001135;28;20219;-72
2023/10/21 04:42:14;;;;;;;48.50;13.87;;;;;;;8.83;100.00;98877.25;5004996;28;20204;-72
2023/10/21 04:44:41;;;;;;;44.97;14.00;;;;;;;8.83;100.00;98879.88;5003134;28;21442;-71
2023/10/21 04:47:07;;;;;;;44.10;14.77;;;;;;;8.83;100.00;98885.16;5000631;28;20224;-71
2023/10/21 04:49:35;;;;;;;43.93;13.30;;;;;;;8.84;100.00;98888.53;5004668;28;20203;-72
2023/10/21 04:52:01;;;;;;;42.63;13.57;;;;;;;8.83;100.00;98879.88;5003429;28;20214;-72
2023/10/21 04:54:28;;;;;;;68.40;26.73;;;;;;;8.84;100.00;98883.25;5006563;28;20206;-71
2023/10/21 04:56:54;;;;;;;35.27;17.37;;;;;;;8.84;100.00;98889.28;5000662;28;20759;-71
2023/10/21 04:59:21;;;;;;;29.70;14.37;;;;;;;8.84;100.00;98899.81;5002683;28;20703;-71
2023/10/21 05:01:47;;;;;;;33.33;12.90;;;;;;;8.84;100.00;98902.44;5000825;28;20220;-70
2023/10/21 05:04:13;;;;;;;37.13;13.10;;;;;;;8.85;100.00;98898.69;5002999;28;20211;-72
2023/10/21 05:06:41;;;;;;;29.90;12.20;;;;;;;8.86;100.00;98907.38;4998484;28;20211;-72
2023/10/21 05:09:07;;;;;;;48.67;14.10;;;;;;;8.85;100.00;98913.75;5000210;28;20215;-71
2023/10/21 05:11:34;;;;;;;28.37;12.57;;;;;;;8.81;100.00;98908.41;4995606;28;20248;-71
2023/10/21 05:14:00;;;;;;;37.13;13.33;;;;;;;8.83;100.00;98914.09;4995557;28;20204;-72
2023/10/21 05:16:26;;;;;;;42.23;13.37;;;;;;;8.79;100.00;98910.66;4995743;28;20210;-72
2023/10/21 05:18:53;;;;;;;23.23;12.80;;;;;;;8.81;100.00;98928.72;4999518;28;20236;-71
2023/10/21 05:21:19;;;;;;;43.30;12.47;;;;;;;8.79;100.00;98934.34;4996744;28;20219;-72
2023/10/21 05:23:47;;;;;;;26.47;12.37;;;;;;;8.78;100.00;98926.78;4997319;28;20696;-71
2023/10/21 05:26:13;;;;;;;41.67;12.43;;;;;;;8.78;100.00;98930.19;5001024;28;20674;-72
2023/10/21 05:28:40;;;;;;;31.93;12.07;;;;;;;8.79;100.00;98941.44;5003112;28;20716;-70
2023/10/21 05:31:07;;;;;;;35.63;12.07;;;;;;;8.78;100.00;98943.34;4998731;28;20230;-72
2023/10/21 05:33:32;;;;;;;27.90;11.57;;;;;;;8.77;100.00;98949.72;5003679;28;20700;-72
2023/10/21 05:35:59;;;;;;;23.23;13.67;;;;;;;8.78;100.00;98937.31;5003365;28;20642;-71
2023/10/21 05:38:26;;;;;;;33.17;12.03;;;;;;;8.77;100.00;98938.44;5000889;28;20730;-72
2023/10/21 05:40:54;;;;;;;29.43;12.77;;;;;;;8.77;100.00;98944.47;5005306;28;20226;-70
2023/10/21 05:43:20;;;;;;;33.60;12.73;;;;;;;8.77;100.00;98955.00;5003945;28;20313;-72
2023/10/21 05:45:46;;;;;;;29.27;12.77;;;;;;;8.78;100.00;98955.72;5006835;28;20634;-71
2023/10/21 05:48:13;;;;;;;28.93;11.87;;;;;;;8.78;100.00;98964.41;5003618;28;20353;-71
2023/10/21 05:50:39;;;;;;;22.73;12.93;;;;;;;8.78;100.00;98971.53;5008970;28;20723;-72
2023/10/21 05:53:06;;;;;;;27.47;11.57;;;;;;;8.79;100.00;98973.03;5008419;28;20695;-72
2023/10/21 05:55:32;;;;;;;43.20;12.87;;;;;;;8.80;100.00;98990.38;5009657;28;20219;-71
2023/10/21 05:58:00;;;;;;;31.63;12.03;;;;;;;8.81;100.00;98995.25;5003892;28;20442;-71
2023/10/21 06:00:26;;;;;;;28.80;14.33;;;;;;;8.82;100.00;98991.53;5011058;28;20658;-71
2023/10/21 06:02:52;;;;;;;26.33;13.30;;;;;;;8.83;100.00;98992.28;5003534;28;20222;-71
2023/10/21 06:05:18;;;;;;;27.27;12.60;;;;;;;8.85;100.00;98997.97;5006688;28;20200;-70
2023/10/21 06:07:44;;;;;;;27.53;13.30;;;;;;;8.86;100.00;98996.84;5007943;28;20227;-71
2023/10/21 06:10:11;;;;;;;41.53;13.67;;;;;;;8.87;100.00;98999.13;5002755;28;20687;-72
2023/10/21 06:12:39;;;;;;;40.77;13.63;;;;;;;8.88;100.00;99008.56;5000440;28;20230;-71
2023/10/21 06:15:08;;;;;;;33.13;13.30;;;;;;;8.90;100.00;99006.31;5002710;28;20286;-71
2023/10/21 06:17:34;;;;;;;29.40;13.27;;;;;;;8.91;100.00;99009.72;5004693;28;20228;-72
2023/10/21 06:20:01;;;;;;;31.27;14.10;;;;;;;8.92;100.00;99012.00;5008534;28;20204;-70
2023/10/21 06:22:27;;;;;;;34.97;13.97;;;;;;;8.95;100.00;99010.53;5004538;28;20204;-71
2023/10/21 06:24:53;;;;;;;36.60;14.97;;;;;;;8.96;100.00;99028.59;5006276;28;20211;-71
2023/10/21 06:27:20;;;;;;;27.03;13.30;;;;;;;8.97;100.00;99022.25;5001182;28;20233;-72
2023/10/21 06:29:46;;;;;;;32.87;13.07;;;;;;;9.00;100.00;99021.53;5001747;28;20230;-72
2023/10/21 06:32:13;;;;;;;35.80;14.17;;;;;;;9.03;100.00;99020.84;4999697;28;20877;-72
2023/10/21 06:34:40;;;;;;;35.43;14.37;;;;;;;9.05;100.00;99017.81;4983490;28;20711;-71
2023/10/21 06:37:06;;;;;;;23.23;13.50;;;;;;;9.06;100.00;99016.72;5004735;28;20235;-72
2023/10/21 06:39:33;;;;;;;34.30;15.57;;;;;;;9.09;100.00;99021.28;5006512;28;20208;-71
2023/10/21 06:41:59;;;;;;;46.00;15.47;;;;;;;9.11;100.00;99024.34;5006288;28;20212;-70
2023/10/21 06:44:26;;;;;;;37.83;15.43;;;;;;;9.13;100.00;99035.28;4990024;28;20210;-72
2023/10/21 06:46:52;;;;;;;30.40;14.50;;;;;;;9.15;100.00;99033.03;4999724;28;20734;-71
2023/10/21 06:49:20;;;;;;;32.23;13.93;;;;;;;9.20;100.00;99045.91;5001642;28;20211;-71
2023/10/21 06:51:49;;;;;;;28.67;14.33;;;;;;;9.22;100.00;99051.59;5004587;28;20621;-72
2023/10/21 06:54:16;;;;;;;32.63;16.37;;;;;;;9.26;100.00;99052.41;5003168;28;20258;-72
2023/10/21 06:56:43;;;;;;;31.30;15.57;;;;;;;9.29;100.00;99057.75;4997755;28;20869;-71
2023/10/21 06:59:09;;;;;;;34.90;15.67;;;;;;;9.32;100.00;99059.66;5003182;28;20578;-70
2023/10/21 07:01:36;;;;;;;42.00;15.43;;;;;;;9.36;100.00;99057.84;5001337;28;20211;-72
2023/10/21 07:04:03;;;;;;;29.80;16.70;;;;;;;9.38;100.00;99066.13;5004143;28;20196;-71
2023/10/21 07:06:31;;;;;;;28.57;15.40;;;;;;;9.43;100.00;99062.47;5007763;28;20204;-71
2023/10/21 07:08:57;;;;;;;30.63;16.77;;;;;;;9.49;100.00;99061.81;5005459;28;20220;-72
2023/10/21 07:11:24;;;;;;;29.87;15.57;;;;;;;9.54;100.00;99058.09;5002110;28;20597;-72
2023/10/21 07:13:51;;;;;;;27.27;16.40;;;;;;;9.59;100.00;99063.06;5002840;28;20209;-72
2023/10/21 07:16:17;;;;;;;28.57;16.23;;;;;;;9.62;100.00;99063.13;5000438;28;20212;-72
2023/10/21 07:18:43;;;;;;;30.47;15.57;;;;;;;9.67;100.00;99072.59;5000054;28;20251;-71
2023/10/21 07:21:10;;;;;;;33.00;17.07;;;;;;;9.70;100.00;99067.38;5006274;28;20205;-72
2023/10/21 07:23:38;;;;;;;31.80;16.97;;;;;;;9.75;100.00;99069.72;5005184;28;20208;-71
2023/10/21 07:26:04;;;;;;;32.73;16.10;;;;;;;9.81;100.00;99076.19;4985381;28;21282;-72
2023/10/21 07:28:33;;;;;;;34.80;17.47;;;;;;;9.86;100.00;99085.66;5004663;28;20676;-72
2023/10/21 07:31:00;;;;;;;32.40;17.87;;;;;;;9.90;100.00;99089.88;5003004;28;20224;-72
2023/10/21 07:33:26;;;;;;;33.87;18.43;;;;;;;9.97;100.00;99097.09;4999645;28;20227;-70
2023/10/21 07:35:53;;;;;;;33.93;18.10;;;;;;;10.01;100.00;99093.41;5007527;28;20948;-72
2023/10/21 07:38:20;;;;;;;31.50;17.77;;;;;;;10.06;100.00;99087.88;5002992;28;20294;-71
2023/10/21 07:40:48;;;;;;;33.60;17.93;;;;;;;10.11;100.00;99092.06;5003498;28;21105;-72
2023/10/21 07:43:16;;;;;;;32.27;17.37;;;;;;;10.15;100.00;99090.22;4998557;28;20208;-71
2023/10/21 07:45:42;;;;;;;32.63;18.33;;;;;;;10.18;100.00;99085.00;5006533;28;20230;-72
2023/10/21 07:48:09;;;;;;;32.53;18.23;;;;;;;10.20;100.00;99100.47;4999840;28;20236;-70
2023/10/21 07:50:36;;;;;;;30.03;17.53;;;;;;;10.23;100.00;99099.75;5003005;28;20592;-71
2023/10/21 07:53:02;;;;;;;32.13;18.33;;;;;;;10.26;100.00;99105.06;5006532;28;20205;-72
2023/10/21 07:55:29;;;;;;;31.37;17.90;;;;;;;10.27;100.00;99101.31;5006003;28;20219;-72
2023/10/21 07:57:57;;;;;;;31.57;18.83;;;;;;;10.30;100.00;99102.47;5005264;28;20221;-72
2023/10/21 08:00:24;;;;;;;32.43;17.63;;;;;;;10.33;100.00;99109.66;4999994;28;20205;-72
2023/10/21 08:02:50;;;;;;;35.27;18.67;;;;;;;10.36;100.00;99101.78;5007655;28;20234;-72
2023/10/21 08:05:16;;;;;;;35.30;18.80;;;;;;;10.40;100.00;99107.88;5002363;28;20204;-72
2023/10/21 08:07:43;;;;;;;34.93;19.23;;;;;;;10.46;100.00;99113.59;5007443;28;20781;-71
2023/10/21 08:10:10;;;;;;;34.17;18.43;;;;;;;10.52;100.00;99123.50;5005076;28;20209;-71
2023/10/21 08:12:36;;;;;;;33.90;19.17;;;;;;;10.56;100.00;99123.53;5005475;28;20220;-72
2023/10/21 08:15:07;;;;;;;35.70;19.67;;;;;;;10.64;100.00;99128.53;5005140;28;20196;-72
2023/10/21 08:17:34;;;;;;;40.50;21.10;;;;;;;10.73;100.00;99136.16;5003407;28;20319;-72
2023/10/21 08:20:00;;;;;;;42.23;20.20;;;;;;;10.81;100.00;99135.88;4998623;28;20402;-72
2023/10/21 08:22:27;;;;;;;42.63;22.57;;;;;;;10.89;100.00;99128.78;5004215;28;20209;-71
2023/10/21 08:24:54;;;;;;;38.87;20.57;;;;;;;10.96;100.00;99128.84;5005924;28;20210;-71
2023/10/21 08:27:20;;;;;;;42.27;21.77;;;;;;;11.04;100.00;99136.50;5005779;28;20644;-71
2023/10/21 08:29:48;;;;;;;44.67;23.40;;;;;;;11.14;100.00;99135.06;4997384;28;20226;-72
2023/10/21 08:32:15;;;;;;;44.47;23.40;;;;;;;11.23;100.00;99132.91;5003253;28;20228;-72
2023/10/21 08:34:42;;;;;;;47.90;23.20;;;;;;;11.32;100.00;99136.75;4991118;28;20671;-72
2023/10/21 08:37:08;;;;;;;46.50;24.00;;;;;;;11.44;100.00;99135.72;5001933;28;20241;-72
2023/10/21 08:39:35;;;;;;;56.50;25.27;;;;;;;11.56;100.00;99140.72;5001479;28;20197;-71
2023/10/21 08:42:02;;;;;;;45.40;21.77;;;;;;;11.66;100.00;99145.38;5002655;28;20215;-72
2023/10/21 08:44:30;;;;;;;47.17;23.07;;;;;;;11.78;100.00;99140.56;5005251;28;20566;-72
2023/10/21 08:46:58;;;;;;;46.67;24.30;;;;;;;11.92;100.00;99145.19;5001801;28;20231;-71
2023/10/21 08:49:26;;;;;;;45.60;23.40;;;;;;;12.04;100.00;99144.88;4999989;28;20226;-71
2023/10/21 08:51:54;;;;;;;47.33;24.00;;;;;;;12.14;100.00;99152.88;4997815;28;20257;-71
2023/10/21 08:54:21;;;;;;;45.73;23.67;;;;;;;12.26;100.00;99151.81;4977004;28;20293;-71
2023/10/21 08:56:47;;;;;;;30.37;16.90;;;;;;;12.45;100.00;99157.56;4999535;28;20618;-72
2023/10/21 08:59:14;;;;;;;23.07;12.93;;;;;;;12.57;100.00;99161.78;4994795;28;20392;-72
2023/10/21 09:01:41;;;;;;;20.20;12.70;;;;;;;12.69;100.00;99156.91;5000940;28;20207;-72
2023/10/21 09:04:07;;;;;;;21.40;12.07;;;;;;;12.83;100.00;99164.16;4999726;28;20712;-72
2023/10/21 09:06:36;;;;;;;19.90;11.67;;;;;;;12.91;100.00;99169.09;4996813;28;20204;-72
2023/10/21 09:09:04;;;;;;;21.30;11.50;;;;;;;13.08;100.00;99172.94;5001572;28;20228;-72
2023/10/21 09:11:31;;;;;;;18.73;11.30;;;;;;;13.15;100.00;99186.97;5006545;28;20220;-72
2023/10/21 09:13:58;;;;;;;21.00;10.33;;;;;;;13.28;100.00;99187.38;5004485;28;20781;-71
2023/10/21 09:16:28;;;;;;;16.20;9.37;;;;;;;13.44;100.00;99190.44;5005111;28;20761;-72
2023/10/21 09:18:59;;;;;;;16.73;9.87;;;;;;;13.52;100.00;99197.28;5001403;28;20229;-72
2023/10/21 09:21:36;;;;;;;13.60;8.17;;;;;;;13.66;100.00;99194.63;5002986;28;20205;-71
2023/10/21 09:24:03;;;;;;;15.77;8.30;;;;;;;13.78;100.00;99197.66;4999326;28;20208;-72
2023/10/21 09:26:34;;;;;;;15.63;8.30;;;;;;;13.89;100.00;99209.03;4995553;28;20204;-71
2023/10/21 09:29:11;;;;;;;12.43;7.50;;;;;;;14.05;100.00;99205.97;4999523;28;20210;-72
2023/10/21 09:31:56;;;;;;;11.17;6.83;;;;;;;14.19;96.83;99214.72;4988260;28;20724;-72
2023/10/21 09:34:29;;;;;;;11.60;7.77;;;;;;;14.25;98.79;99223.81;5002930;28;20719;-71
2023/10/21 09:36:58;;;;;;;10.27;5.87;;;;;;;14.37;98.26;99223.41;5002272;28;20615;-71
2023/10/21 09:39:26;;;;;;;9.30;5.77;;;;;;;14.49;96.74;99227.56;4999135;28;20217;-71
2023/10/21 09:41:52;;;;;;;6.10;4.47;;;;;;;14.60;95.58;99230.94;5001134;28;20586;-72
2023/10/21 09:44:19;;;;;;;4.33;3.27;;;;;;;14.75;94.64;99230.50;4998513;28;20602;-72
2023/10/21 09:46:46;;;;;;;4.13;3.10;;;;;;;14.85;93.17;99236.94;5007755;28;20202;-72
2023/10/21 09:49:14;;;;;;;4.13;3.13;;;;;;;14.92;92.32;99240.34;5011921;28;20209;-71
2023/10/21 09:51:54;;;;;;;4.47;3.47;;;;;;;15.09;91.51;99249.38;5011422;28;20227;-72
2023/10/21 09:54:30;;;;;;;3.10;2.60;;;;;;;15.18;91.27;99244.38;5010164;28;20917;-72
2023/10/21 09:56:58;;;;;;;2.60;2.13;;;;;;;15.25;91.86;99247.78;5013851;28;20226;-72
2023/10/21 09:59:25;;;;;;;2.83;1.60;;;;;;;15.40;88.67;99253.78;5009523;28;20574;-72
2023/10/21 10:01:52;;;;;;;1.87;1.70;;;;;;;15.46;89.37;99255.66;5007029;28;20215;-72
2023/10/21 10:04:21;;;;;;;2.30;0.90;;;;;;;15.59;88.14;99256.75;5012149;28;20232;-72
2023/10/21 10:06:56;;;;;;;1.50;0.90;;;;;;;15.63;86.23;99248.72;5010914;28;20214;-72
2023/10/21 10:09:25;;;;;;;0.73;0.73;;;;;;;15.73;85.49;99255.88;5010652;28;20216;-71
2023/10/21 10:11:54;;;;;;;0.60;0.60;;;;;;;15.80;85.42;99261.16;5012039;28;20227;-70
2023/10/21 10:14:21;;;;;;;1.80;0.47;;;;;;;15.86;84.82;99262.25;5011582;28;20215;-71
2023/10/21 10:16:47;;;;;;;1.73;0.70;;;;;;;15.95;84.02;99268.66;5012888;28;20277;-72
2023/10/21 10:19:16;;;;;;;0.87;0.50;;;;;;;16.03;83.25;99272.75;5013595;28;20663;-72
2023/10/21 10:21:43;;;;;;;1.03;0.40;;;;;;;16.11;83.40;99281.44;5012698;28;20215;-71
2023/10/21 10:24:10;;;;;;;0.30;0.30;;;;;;;16.17;82.57;99282.53;5011993;28;20205;-72
2023/10/21 10:26:38;;;;;;;0.30;0.30;;;;;;;16.20;83.82;99285.16;5009185;28;20212;-72
2023/10/21 10:29:19;;;;;;;0.60;0.40;;;;;;;16.32;80.61;99287.38;5003451;28;20382;-72
2023/10/21 10:31:45;;;;;;;0.40;0.40;;;;;;;16.31;81.11;99288.50;4997633;28;20235;-72
2023/10/21 10:34:11;;;;;;;1.03;0.53;;;;;;;16.38;78.84;99287.69;5001804;28;20239;-71
2023/10/21 10:36:38;;;;;;;1.23;0.30;;;;;;;16.41;79.44;99293.00;5002790;28;20207;-72
2023/10/21 10:39:05;;;;;;;0.90;0.40;;;;;;;16.43;82.38;99296.03;5001977;28;20242;-72
2023/10/21 10:41:32;;;;;;;1.90;0.20;;;;;;;16.48;79.27;99300.19;5006699;28;21432;-72
2023/10/21 10:44:06;;;;;;;0.40;0.40;;;;;;;16.59;76.79;99306.94;5004066;28;20572;-72
2023/10/21 10:46:36;;;;;;;3.30;0.60;;;;;;;16.60;80.31;99310.34;5005221;28;20235;-71
2023/10/21 10:49:05;;;;;;;0.50;0.50;;;;;;;16.64;78.24;99316.41;5003712;28;20286;-72
2023/10/21 10:51:42;;;;;;;0.30;0.30;;;;;;;16.68;77.50;99320.56;5002498;28;20197;-72
2023/10/21 10:54:12;;;;;;;0.40;0.40;;;;;;;16.76;78.37;99335.31;5005778;28;20690;-72
2023/10/21 10:56:43;;;;;;;0.60;0.40;;;;;;;16.86;74.73;99331.78;5006184;28;20874;-72
2023/10/21 10:59:17;;;;;;;0.40;0.40;;;;;;;16.88;72.58;99326.81;5002579;28;20688;-72
2023/10/21 11:01:43;;;;;;;0.30;0.23;;;;;;;16.88;76.81;99339.41;5007317;28;20270;-71
2023/10/21 11:04:10;;;;;;;2.63;0.27;;;;;;;16.88;73.21;99340.13;5011280;28;20200;-72
2023/10/21 11:06:39;;;;;;;1.13;0.30;;;;;;;16.90;77.91;99351.19;5011862;28;20242;-72
2023/10/21 11:09:07;;;;;;;0.37;0.30;;;;;;;16.91;76.39;99355.34;5015115;28;20739;-72
2023/10/21 11:11:45;;;;;;;0.37;0.30;;;;;;;16.98;74.71;99354.53;5011206;28;20215;-71
2023/10/21 11:14:11;;;;;;;0.60;0.40;;;;;;;17.04;74.38;99351.03;5014461;28;20482;-71
2023/10/21 11:16:39;;;;;;;0.60;0.37;;;;;;;17.12;73.33;99349.06;5019087;28;20204;-72
2023/10/21 11:19:06;;;;;;;0.20;0.20;;;;;;;17.24;73.80;99357.28;5015462;28;20204;-72